Time;durP1;ratioP1;P1;durP2;ratioP2;P2;SDS_P1;SDS_P2;PMS_P1;PMS_P2;Temp;Humidity;BMP_temperature;BMP_pressure;BME280_temperature;BME280_humidity;BME280_pressure;Samples;Min_cycle;Max_cycle;Signal;HPM_P1;HPM_P2
2023/01/09 00:01:15;;;;;;;6.07;3.65;;;;;;;6.36;100.00;97307.59;5075071;28;20075;-81
2023/01/09 00:03:43;;;;;;;5.20;3.70;;;;;;;6.44;100.00;97323.59;5081167;28;20397;-81
2023/01/09 00:06:10;;;;;;;6.00;3.38;;;;;;;6.45;100.00;97319.84;5081924;28;20044;-81
2023/01/09 00:08:37;;;;;;;6.45;3.35;;;;;;;6.28;100.00;97295.13;5083988;28;20048;-81
2023/01/09 00:11:03;;;;;;;4.32;3.00;;;;;;;6.26;100.00;97286.38;5080514;28;20054;-81
2023/01/09 00:13:30;;;;;;;5.60;3.72;;;;;;;6.43;100.00;97313.84;5094577;28;20040;-81
2023/01/09 00:15:57;;;;;;;6.35;4.32;;;;;;;6.35;100.00;97303.22;5090915;28;20052;-81
2023/01/09 00:18:23;;;;;;;5.68;3.97;;;;;;;6.38;100.00;97309.06;5084884;28;20054;-81
2023/01/09 00:20:51;;;;;;;8.07;4.28;;;;;;;6.33;100.00;97295.31;5081536;28;20083;-81
2023/01/09 00:23:18;;;;;;;5.90;3.85;;;;;;;6.34;100.00;97309.66;5088142;28;20043;-81
2023/01/09 00:25:44;;;;;;;7.13;4.07;;;;;;;6.49;100.00;97317.59;5087776;28;20048;-81
2023/01/09 00:28:11;;;;;;;6.90;3.63;;;;;;;6.39;100.00;97304.47;5081184;28;20055;-81
2023/01/09 00:30:37;;;;;;;6.32;4.18;;;;;;;6.31;100.00;97292.00;5083021;28;20051;-80
2023/01/09 00:33:04;;;;;;;6.65;3.53;;;;;;;6.38;100.00;97309.06;5085518;28;20131;-81
2023/01/09 00:35:30;;;;;;;5.40;3.83;;;;;;;6.27;100.00;97293.44;5089512;28;20130;-81
2023/01/09 00:37:58;;;;;;;5.32;3.50;;;;;;;6.37;100.00;97307.38;5106918;28;20051;-78
2023/01/09 00:40:25;;;;;;;5.57;3.80;;;;;;;6.39;100.00;97320.69;5085250;28;20126;-78
2023/01/09 00:42:56;;;;;;;5.80;4.00;;;;;;;6.40;100.00;97322.34;5080549;28;20048;-78
2023/01/09 00:45:27;;;;;;;7.15;4.38;;;;;;;6.41;100.00;97302.41;5086683;28;20070;-78
2023/01/09 00:47:56;;;;;;;6.35;4.15;;;;;;;6.52;100.00;97320.72;5087322;28;20094;-78
2023/01/09 00:50:27;;;;;;;4.80;3.38;;;;;;;6.37;100.00;97293.88;5089128;28;20652;-78
2023/01/09 00:53:01;;;;;;;13.18;4.90;;;;;;;6.44;100.00;97309.25;5080667;28;20045;-78
2023/01/09 00:55:31;;;;;;;6.95;4.22;;;;;;;6.49;100.00;97301.41;5084770;28;20129;-77
2023/01/09 00:57:58;;;;;;;9.23;4.80;;;;;;;6.23;100.00;97285.97;5090690;28;20040;-79
2023/01/09 01:00:24;;;;;;;8.95;4.93;;;;;;;6.38;100.00;97309.06;5078465;28;20043;-79
2023/01/09 01:02:51;;;;;;;7.82;4.20;;;;;;;6.29;100.00;97304.88;5077967;28;20059;-78
2023/01/09 01:08:09;;;;;;;8.32;4.63;;;;;;;6.29;100.00;97314.81;5079564;28;20514;-78
2023/01/09 01:10:36;;;;;;;6.50;4.20;;;;;;;6.14;100.00;97283.47;5083423;28;20043;-78
2023/01/09 01:13:02;;;;;;;6.15;4.05;;;;;;;6.26;100.00;97299.88;5073963;28;20137;-78
2023/01/09 01:15:29;;;;;;;7.57;3.95;;;;;;;6.32;100.00;97304.47;5081767;28;20049;-78
2023/01/09 01:17:56;;;;;;;6.38;3.72;;;;;;;6.22;100.00;97290.53;5086534;28;20054;-78
2023/01/09 01:20:22;;;;;;;6.00;4.43;;;;;;;6.24;100.00;97284.94;5093400;28;20066;-79
2023/01/09 01:22:49;;;;;;;6.93;4.47;;;;;;;6.16;100.00;97273.28;5086949;28;20052;-78
2023/01/09 01:25:18;;;;;;;5.40;3.80;;;;;;;6.18;100.00;97267.69;5092324;28;20040;-79
2023/01/09 01:27:45;;;;;;;6.70;4.10;;;;;;;6.15;100.00;97268.91;5093256;28;20055;-78
2023/01/09 01:30:16;;;;;;;10.60;3.70;;;;;;;6.19;100.00;97267.47;5085232;28;20051;-79
2023/01/09 01:32:43;;;;;;;5.80;3.92;;;;;;;6.27;100.00;97274.56;5089911;28;20036;-78
2023/01/09 01:35:11;;;;;;;4.60;3.40;;;;;;;6.34;100.00;97279.97;5081687;28;20040;-78
2023/01/09 01:37:38;;;;;;;5.68;3.63;;;;;;;6.23;100.00;97253.56;5092452;28;20054;-78
2023/01/09 01:40:08;;;;;;;5.22;3.35;;;;;;;6.38;100.00;97279.38;5090298;28;20407;-78
2023/01/09 01:42:36;;;;;;;4.15;3.15;;;;;;;6.31;100.00;97294.72;5089045;28;20428;-78
2023/01/09 01:45:09;;;;;;;6.85;3.80;;;;;;;6.10;100.00;97263.31;5086759;28;20139;-78
2023/01/09 01:47:46;;;;;;;4.97;3.30;;;;;;;6.20;100.00;97263.75;5090546;28;20048;-78
2023/01/09 01:50:17;;;;;;;4.35;2.75;;;;;;;6.33;100.00;97292.63;5091955;28;20051;-78
2023/01/09 01:52:48;;;;;;;4.15;2.72;;;;;;;6.16;100.00;97267.88;5089291;28;20136;-78
2023/01/09 01:55:17;;;;;;;2.63;2.15;;;;;;;6.34;100.00;97288.91;5093567;28;20044;-78
2023/01/09 01:57:48;;;;;;;4.22;2.85;;;;;;;6.22;100.00;97278.88;5085320;28;20435;-78
2023/01/09 02:00:16;;;;;;;3.63;2.38;;;;;;;6.16;100.00;97270.59;5088645;28;20044;-78
2023/01/09 02:02:44;;;;;;;4.82;2.35;;;;;;;6.28;100.00;97286.16;5090874;28;20048;-78
2023/01/09 02:05:11;;;;;;;3.40;2.50;;;;;;;6.15;100.00;97271.59;5093243;28;20094;-79
2023/01/09 02:07:38;;;;;;;5.00;2.53;;;;;;;6.16;100.00;97272.47;5087677;28;20074;-78
2023/01/09 02:10:05;;;;;;;6.63;2.55;;;;;;;6.24;100.00;97287.63;5088447;28;20490;-78
2023/01/09 02:12:32;;;;;;;2.92;1.92;;;;;;;6.20;100.00;97303.38;5088313;28;20102;-78
2023/01/09 02:15:04;;;;;;;3.88;2.00;;;;;;;6.18;100.00;97281.19;5088079;28;20051;-78
2023/01/09 02:18:12;;;;;;;2.53;1.55;;;;;;;6.17;100.00;97274.09;5091076;28;20113;-79
2023/01/09 02:20:47;;;;;;;3.55;2.33;;;;;;;6.35;100.00;97304.06;5076938;28;20048;-80
2023/01/09 02:23:44;;;;;;;1.67;1.33;;;;;;;6.24;100.00;97266.88;5084144;28;20055;-79
2023/01/09 02:26:55;;;;;;;2.53;1.40;;;;;;;6.25;100.00;97270.38;5077530;28;20044;-78
2023/01/09 02:29:48;;;;;;;2.40;1.67;;;;;;;6.32;100.00;97282.88;5065881;28;20131;-79
2023/01/09 02:32:27;;;;;;;1.83;1.27;;;;;;;6.29;100.00;97280.59;5079183;28;20039;-79
2023/01/09 02:35:02;;;;;;;3.15;1.48;;;;;;;6.25;100.00;97262.28;5092116;28;20402;-78
2023/01/09 02:37:37;;;;;;;3.40;1.20;;;;;;;6.27;100.00;97246.75;5089786;28;20040;-79
2023/01/09 02:40:15;;;;;;;1.65;1.20;;;;;;;6.49;100.00;97269.00;5091229;28;20052;-79
2023/01/09 02:42:43;;;;;;;1.92;1.42;;;;;;;6.38;100.00;97238.03;5089643;28;20049;-78
2023/01/09 02:45:10;;;;;;;1.42;0.90;;;;;;;6.41;100.00;97244.91;5089958;28;20119;-79
2023/01/09 02:47:42;;;;;;;1.90;1.30;;;;;;;6.42;100.00;97258.19;5085777;28;20044;-79
2023/01/09 02:50:13;;;;;;;1.63;1.02;;;;;;;6.29;100.00;97279.75;5089067;28;20047;-79
2023/01/09 02:53:22;;;;;;;1.10;1.00;;;;;;;6.28;100.00;97281.63;5087923;28;20067;-78
2023/01/09 02:56:00;;;;;;;2.15;1.23;;;;;;;6.13;100.00;97273.69;5091354;28;20048;-79
2023/01/09 02:58:43;;;;;;;1.58;1.08;;;;;;;6.23;100.00;97280.56;5085373;28;20051;-78
2023/01/09 03:01:19;;;;;;;1.35;0.85;;;;;;;6.24;100.00;97283.06;5084911;28;20044;-78
2023/01/09 03:03:56;;;;;;;1.98;1.23;;;;;;;6.13;100.00;97272.88;5085737;28;20487;-78
2023/01/09 03:06:30;;;;;;;1.85;1.02;;;;;;;6.12;100.00;97272.00;5078434;28;20052;-78
2023/01/09 03:09:03;;;;;;;2.50;1.23;;;;;;;5.95;100.00;97255.34;5079256;28;20043;-79
2023/01/09 03:11:39;;;;;;;1.95;1.52;;;;;;;5.94;100.00;97275.25;5079447;28;20056;-78
2023/01/09 03:14:09;;;;;;;4.25;1.48;;;;;;;6.03;100.00;97297.50;5077170;28;20044;-78
2023/01/09 03:16:38;;;;;;;2.47;0.85;;;;;;;5.83;100.00;97281.22;5090114;28;20133;-79
2023/01/09 03:19:10;;;;;;;1.23;0.90;;;;;;;5.93;100.00;97303.28;5091023;28;20052;-79
2023/01/09 03:21:38;;;;;;;1.92;0.90;;;;;;;5.88;100.00;97296.81;5090755;28;20051;-79
2023/01/09 03:24:05;;;;;;;1.10;0.70;;;;;;;5.97;100.00;97319.91;5087275;28;20059;-78
2023/01/09 03:26:32;;;;;;;1.25;0.80;;;;;;;6.01;100.00;97316.59;5089737;28;20036;-79
2023/01/09 03:28:59;;;;;;;2.05;1.33;;;;;;;6.06;100.00;97329.47;5088419;28;20044;-79
2023/01/09 03:31:25;;;;;;;2.67;1.20;;;;;;;5.99;100.00;97294.41;5091806;28;20391;-79
2023/01/09 03:33:52;;;;;;;1.08;0.80;;;;;;;6.17;100.00;97326.22;5070548;28;20040;-78
2023/01/09 03:36:21;;;;;;;1.08;0.73;;;;;;;6.02;100.00;97303.94;5076565;28;20396;-78
2023/01/09 03:38:48;;;;;;;1.42;0.95;;;;;;;6.06;100.00;97318.69;5079525;28;20044;-78
2023/01/09 03:41:15;;;;;;;1.45;0.90;;;;;;;6.16;100.00;97356.94;5090886;28;20044;-79
2023/01/09 03:43:41;;;;;;;1.40;0.68;;;;;;;6.18;100.00;97357.53;5087966;28;20052;-79
2023/01/09 03:46:08;;;;;;;1.52;1.05;;;;;;;6.15;100.00;97343.63;5091206;28;20048;-79
2023/01/09 03:48:34;;;;;;;0.63;0.60;;;;;;;6.23;100.00;97373.13;5071643;28;20447;-79
2023/01/09 03:51:01;;;;;;;1.30;0.75;;;;;;;6.12;100.00;97368.31;5087586;28;20499;-78
2023/01/09 03:53:29;;;;;;;0.93;0.70;;;;;;;6.14;100.00;97368.94;5087508;28;20040;-79
2023/01/09 03:55:57;;;;;;;1.27;0.70;;;;;;;6.18;100.00;97386.41;5088784;28;20502;-79
2023/01/09 03:58:24;;;;;;;0.80;0.70;;;;;;;6.18;100.00;97416.09;5089060;28;20044;-80
2023/01/09 04:00:52;;;;;;;1.83;0.60;;;;;;;6.14;100.00;97431.84;5090386;28;20139;-80
2023/01/09 04:03:21;;;;;;;0.80;0.70;;;;;;;6.10;100.00;97440.53;5086844;28;20144;-79
2023/01/09 04:05:49;;;;;;;0.57;0.57;;;;;;;5.99;100.00;97467.03;5083899;28;20048;-82
2023/01/09 04:08:16;;;;;;;0.77;0.60;;;;;;;5.67;100.00;97447.69;5080015;28;20048;-79
2023/01/09 04:10:45;;;;;;;0.75;0.65;;;;;;;5.69;100.00;97471.78;5090848;28;20076;-80
2023/01/09 04:13:12;;;;;;;0.38;0.38;;;;;;;5.65;100.00;97486.66;5085775;28;20044;-80
2023/01/09 04:15:38;;;;;;;0.80;0.68;;;;;;;5.63;100.00;97499.47;5088781;28;20517;-80
2023/01/09 04:18:05;;;;;;;1.83;1.05;;;;;;;5.50;100.00;97497.50;5093930;28;20055;-81
2023/01/09 04:20:32;;;;;;;1.23;0.77;;;;;;;5.34;100.00;97481.59;5083647;28;20040;-80
2023/01/09 04:22:59;;;;;;;1.73;0.77;;;;;;;5.30;100.00;97490.06;5086562;28;20277;-80
2023/01/09 04:25:26;;;;;;;0.82;0.70;;;;;;;5.30;100.00;97503.56;5085855;28;20089;-80
2023/01/09 04:27:54;;;;;;;1.67;0.70;;;;;;;5.31;100.00;97507.06;5085513;28;20075;-80
2023/01/09 04:30:20;;;;;;;2.25;0.85;;;;;;;5.38;100.00;97540.31;5090536;28;20048;-80
2023/01/09 04:32:47;;;;;;;2.53;0.95;;;;;;;5.36;100.00;97541.53;5086088;28;20067;-80
2023/01/09 04:35:14;;;;;;;1.02;0.57;;;;;;;5.34;100.00;97543.59;5083970;28;20497;-81
2023/01/09 04:37:40;;;;;;;0.60;0.50;;;;;;;5.34;100.00;97551.66;5092209;28;20055;-80
2023/01/09 04:40:09;;;;;;;0.88;0.73;;;;;;;5.22;100.00;97540.56;5087375;28;20055;-80
2023/01/09 04:42:35;;;;;;;1.85;0.57;;;;;;;5.19;100.00;97551.72;5084243;28;20040;-80
2023/01/09 04:45:04;;;;;;;3.25;0.88;;;;;;;5.31;100.00;97579.81;5092284;28;20044;-79
2023/01/09 04:47:31;;;;;;;1.98;0.70;;;;;;;5.30;100.00;97580.88;5089469;28;20056;-79
2023/01/09 04:49:58;;;;;;;1.35;0.93;;;;;;;5.29;100.00;97592.66;5081778;28;20048;-79
2023/01/09 04:52:24;;;;;;;1.23;0.90;;;;;;;5.15;100.00;97567.44;5089398;28;20052;-80
2023/01/09 04:54:51;;;;;;;0.88;0.68;;;;;;;5.14;100.00;97566.56;5090290;28;20063;-79
2023/01/09 04:57:18;;;;;;;1.08;0.85;;;;;;;5.21;100.00;97595.44;5089305;28;20484;-79
2023/01/09 04:59:44;;;;;;;1.95;0.90;;;;;;;5.10;100.00;97588.69;5091950;28;20130;-79
2023/01/09 05:02:12;;;;;;;1.13;0.82;;;;;;;5.13;100.00;97588.31;5089406;28;20056;-79
2023/01/09 05:04:39;;;;;;;3.92;1.05;;;;;;;5.13;100.00;97572.16;5090748;28;20050;-79
2023/01/09 05:07:06;;;;;;;1.17;0.82;;;;;;;5.27;100.00;97587.47;5075443;28;20131;-80
2023/01/09 05:09:33;;;;;;;3.90;2.03;;;;;;;5.16;100.00;97596.03;5092403;28;20403;-79
2023/01/09 05:11:59;;;;;;;3.30;1.20;;;;;;;5.02;100.00;97578.88;5090250;28;20125;-79
2023/01/09 05:14:26;;;;;;;5.05;1.17;;;;;;;5.14;100.00;97584.63;5089001;28;20527;-79
2023/01/09 05:16:52;;;;;;;4.25;1.17;;;;;;;5.20;100.00;97600.00;5085733;28;20059;-80
2023/01/09 05:19:21;;;;;;;1.00;0.73;;;;;;;5.22;100.00;97619.50;5087139;28;20048;-80
2023/01/09 05:21:48;;;;;;;1.10;0.93;;;;;;;5.25;100.00;97616.44;5078901;28;20052;-79
2023/01/09 05:24:14;;;;;;;0.90;0.73;;;;;;;5.27;100.00;97622.50;5070270;28;20052;-83
2023/01/09 05:26:41;;;;;;;1.13;0.90;;;;;;;5.14;100.00;97612.38;5091716;28;20492;-82
2023/01/09 05:29:08;;;;;;;1.50;1.05;;;;;;;5.09;100.00;97625.59;5087052;28;20048;-82
2023/01/09 05:31:34;;;;;;;1.75;1.05;;;;;;;5.09;100.00;97614.81;5085820;28;20102;-82
2023/01/09 05:34:01;;;;;;;3.15;1.00;;;;;;;5.26;100.00;97650.44;5078206;28;20055;-82
2023/01/09 05:36:29;;;;;;;1.17;1.05;;;;;;;5.25;100.00;97654.16;5087345;28;20050;-83
2023/01/09 05:38:57;;;;;;;1.73;0.82;;;;;;;5.20;100.00;97655.78;5093472;28;20047;-82
2023/01/09 05:41:24;;;;;;;4.28;1.23;;;;;;;5.20;100.00;97659.28;5084593;28;20044;-83
2023/01/09 05:43:51;;;;;;;2.33;1.02;;;;;;;5.03;100.00;97653.28;5089720;28;20070;-83
2023/01/09 05:46:17;;;;;;;4.03;0.98;;;;;;;5.12;100.00;97657.53;5090030;28;20473;-82
2023/01/09 05:48:44;;;;;;;1.05;0.75;;;;;;;5.07;100.00;97656.41;5088130;28;20158;-83
2023/01/09 05:51:13;;;;;;;4.95;1.33;;;;;;;5.03;100.00;97663.19;5094520;28;20121;-83
2023/01/09 05:53:41;;;;;;;10.00;1.60;;;;;;;5.11;100.00;97679.28;5091675;28;20064;-83
2023/01/09 05:56:08;;;;;;;4.10;1.20;;;;;;;4.97;100.00;97668.31;5086056;28;20045;-83
2023/01/09 05:58:35;;;;;;;3.75;0.98;;;;;;;5.02;100.00;97683.09;5090211;28;20048;-82
2023/01/09 06:01:01;;;;;;;0.70;0.70;;;;;;;5.05;100.00;97680.03;5093148;28;20521;-83
2023/01/09 06:03:28;;;;;;;2.88;0.95;;;;;;;4.99;100.00;97697.75;5085027;28;20075;-82
2023/01/09 06:05:54;;;;;;;1.88;0.82;;;;;;;4.84;100.00;97676.19;5092300;28;20055;-82
2023/01/09 06:08:21;;;;;;;2.50;1.13;;;;;;;4.79;100.00;97678.63;5093027;28;20035;-82
2023/01/09 06:10:49;;;;;;;3.72;0.90;;;;;;;4.91;100.00;97706.75;5085648;28;20052;-83
2023/01/09 06:13:16;;;;;;;1.55;0.93;;;;;;;4.92;100.00;97708.44;5081863;28;20458;-83
2023/01/09 06:15:43;;;;;;;7.32;2.45;;;;;;;4.74;100.00;97697.16;5088960;28;20050;-83
2023/01/09 06:18:09;;;;;;;1.33;1.05;;;;;;;4.81;100.00;97718.81;5094340;28;20112;-83
2023/01/09 06:20:36;;;;;;;1.88;0.90;;;;;;;4.78;100.00;97737.00;5091763;28;20466;-82
2023/01/09 06:23:02;;;;;;;4.00;1.10;;;;;;;4.75;100.00;97733.84;5093649;28;20435;-82
2023/01/09 06:25:29;;;;;;;2.50;0.98;;;;;;;4.77;100.00;97743.44;5092775;28;20044;-83
2023/01/09 06:27:57;;;;;;;2.28;1.10;;;;;;;4.50;100.00;97703.63;5090158;28;20507;-82
2023/01/09 06:30:24;;;;;;;3.47;1.33;;;;;;;4.53;100.00;97731.03;5092872;28;20079;-82
2023/01/09 06:32:50;;;;;;;3.75;1.42;;;;;;;4.51;100.00;97738.44;5092054;28;20058;-83
2023/01/09 06:35:19;;;;;;;2.92;1.30;;;;;;;4.50;100.00;97719.78;5089751;28;20040;-83
2023/01/09 06:37:46;;;;;;;7.15;1.70;;;;;;;4.47;100.00;97729.06;5093881;27;20055;-83
2023/01/09 06:40:13;;;;;;;3.75;2.03;;;;;;;4.57;100.00;97743.06;5091169;28;20089;-83
2023/01/09 06:42:45;;;;;;;4.45;1.75;;;;;;;4.42;100.00;97729.56;5089554;28;20048;-83
2023/01/09 06:45:13;;;;;;;1.52;1.38;;;;;;;4.44;100.00;97742.84;5089507;28;20055;-83
2023/01/09 06:47:40;;;;;;;2.35;1.38;;;;;;;4.36;100.00;97749.13;5090548;28;20055;-83
2023/01/09 06:50:08;;;;;;;4.13;1.45;;;;;;;4.20;100.00;97720.53;5088745;28;20059;-84
2023/01/09 06:52:35;;;;;;;6.38;1.60;;;;;;;4.30;100.00;97727.50;5091061;28;20048;-83
2023/01/09 06:55:01;;;;;;;3.67;1.52;;;;;;;4.39;100.00;97729.94;5092792;28;20046;-83
2023/01/09 06:57:28;;;;;;;6.80;1.50;;;;;;;4.39;100.00;97734.50;5091170;28;20043;-84
2023/01/09 06:59:55;;;;;;;2.35;0.93;;;;;;;4.35;100.00;97736.72;5082456;28;20052;-84
2023/01/09 07:02:23;;;;;;;2.60;1.33;;;;;;;4.28;100.00;97737.63;5091547;28;20059;-84
2023/01/09 07:04:50;;;;;;;8.80;2.47;;;;;;;4.24;100.00;97737.13;5090932;28;20485;-83
2023/01/09 07:07:18;;;;;;;1.67;1.20;;;;;;;4.38;100.00;97757.03;5090768;28;20040;-83
2023/01/09 07:09:44;;;;;;;7.75;1.48;;;;;;;4.36;100.00;97745.63;5090928;28;20059;-84
2023/01/09 07:12:11;;;;;;;5.88;1.45;;;;;;;4.27;100.00;97736.78;5087118;28;20079;-84
2023/01/09 07:14:38;;;;;;;2.97;1.13;;;;;;;4.35;100.00;97747.47;5091040;28;20044;-84
2023/01/09 07:17:07;;;;;;;2.97;1.10;;;;;;;4.47;100.00;97765.88;5084104;28;20381;-83
2023/01/09 07:19:35;;;;;;;3.78;1.23;;;;;;;4.53;100.00;97765.16;5092009;28;20054;-80
2023/01/09 07:22:02;;;;;;;3.92;1.45;;;;;;;4.52;100.00;97758.94;5083085;27;20451;-82
2023/01/09 07:24:28;;;;;;;3.42;1.42;;;;;;;4.56;100.00;97771.03;5085772;28;20056;-82
2023/01/09 07:26:55;;;;;;;1.92;0.90;;;;;;;4.48;100.00;97756.81;5086062;28;20514;-81
2023/01/09 07:29:22;;;;;;;5.07;0.90;;;;;;;4.52;100.00;97756.25;5091600;28;20055;-82
2023/01/09 07:31:48;;;;;;;1.42;1.00;;;;;;;4.40;100.00;97739.69;5082037;28;20043;-82
2023/01/09 07:34:15;;;;;;;3.97;1.00;;;;;;;4.41;100.00;97752.16;5089519;28;20094;-82
2023/01/09 07:36:45;;;;;;;2.40;1.17;;;;;;;4.42;100.00;97750.28;5091653;28;20048;-81
2023/01/09 07:39:11;;;;;;;4.30;1.30;;;;;;;4.51;100.00;97761.81;5082279;28;20040;-82
2023/01/09 07:41:38;;;;;;;9.63;1.25;;;;;;;4.50;100.00;97758.31;5089833;28;20048;-82
2023/01/09 07:44:05;;;;;;;1.95;0.80;;;;;;;4.47;100.00;97760.50;5087231;28;20051;-82
2023/01/09 07:46:32;;;;;;;3.05;0.85;;;;;;;4.66;100.00;97769.94;5087239;28;20388;-82
2023/01/09 07:48:59;;;;;;;5.18;1.42;;;;;;;4.68;100.00;97776.81;5090183;28;20463;-82
2023/01/09 07:51:25;;;;;;;1.35;0.75;;;;;;;4.57;100.00;97764.63;5089442;28;20051;-82
2023/01/09 07:53:53;;;;;;;2.47;1.40;;;;;;;4.64;100.00;97772.81;5085193;28;20056;-82
2023/01/09 07:56:20;;;;;;;3.47;1.40;;;;;;;4.71;100.00;97768.38;5080129;28;20102;-82
2023/01/09 07:58:47;;;;;;;7.90;1.15;;;;;;;4.60;100.00;97760.72;5087788;28;20052;-81
2023/01/09 08:01:13;;;;;;;2.70;1.30;;;;;;;4.78;100.00;97787.34;5083670;28;20043;-81
2023/01/09 08:03:40;;;;;;;3.22;1.27;;;;;;;4.77;100.00;97786.50;5086866;28;20048;-82
2023/01/09 08:06:07;;;;;;;3.35;1.20;;;;;;;4.78;100.00;97788.16;5089801;28;20048;-82
2023/01/09 08:08:33;;;;;;;3.80;0.90;;;;;;;4.89;100.00;97805.75;5088398;28;20048;-82
2023/01/09 08:11:01;;;;;;;1.33;0.75;;;;;;;4.86;100.00;97786.41;5089675;28;20384;-82
2023/01/09 08:13:28;;;;;;;5.57;1.10;;;;;;;4.76;100.00;97773.22;5084726;28;20044;-82
2023/01/09 08:15:54;;;;;;;2.45;0.80;;;;;;;4.93;100.00;97796.28;5085379;28;20044;-82
2023/01/09 08:18:21;;;;;;;4.32;1.35;;;;;;;4.98;100.00;97787.66;5079568;28;20055;-82
2023/01/09 08:20:48;;;;;;;3.08;1.17;;;;;;;5.01;100.00;97800.75;5090925;28;20054;-82
2023/01/09 08:23:15;;;;;;;4.35;1.23;;;;;;;4.95;100.00;97790.72;5069841;28;20399;-83
2023/01/09 08:25:41;;;;;;;1.48;0.85;;;;;;;5.00;100.00;97799.09;5090107;28;20503;-82
2023/01/09 08:28:09;;;;;;;3.95;1.17;;;;;;;4.90;100.00;97785.03;5090242;28;20047;-82
2023/01/09 08:30:36;;;;;;;6.97;1.33;;;;;;;4.89;100.00;97773.44;5089914;28;20054;-82
2023/01/09 08:33:03;;;;;;;5.40;0.70;;;;;;;5.08;100.00;97796.31;5082049;28;20088;-82
2023/01/09 08:35:29;;;;;;;2.78;1.20;;;;;;;5.18;100.00;97803.28;5090508;28;20043;-82
2023/01/09 08:37:56;;;;;;;3.47;0.90;;;;;;;5.17;100.00;97790.84;5092762;28;20502;-82
2023/01/09 08:40:23;;;;;;;2.20;1.10;;;;;;;5.22;100.00;97805.41;5090911;28;20047;-82
2023/01/09 08:48:22;;;;;;;2.30;0.75;;;;;;;5.58;100.00;97811.97;5084432;28;20051;-82
2023/01/09 08:50:48;;;;;;;5.85;1.48;;;;;;;5.60;100.00;97780.25;5092169;28;20052;-82
2023/01/09 08:53:15;;;;;;;2.90;1.23;;;;;;;5.69;100.00;97784.53;5090707;28;20135;-82
2023/01/09 08:55:42;;;;;;;0.77;0.73;;;;;;;5.81;100.00;97796.50;5090090;28;20063;-82
2023/01/09 08:58:08;;;;;;;2.28;0.98;;;;;;;5.89;100.00;97809.06;5089840;28;20444;-82
2023/01/09 09:00:36;;;;;;;2.20;0.88;;;;;;;5.81;100.00;97810.00;5088431;28;20517;-82
2023/01/09 09:03:03;;;;;;;1.73;0.85;;;;;;;5.60;100.00;97789.19;5090100;28;20435;-82
2023/01/09 09:05:31;;;;;;;5.00;1.15;;;;;;;5.78;100.00;97801.44;5090397;28;20050;-83
2023/01/09 09:07:59;;;;;;;3.67;1.27;;;;;;;5.59;100.00;97779.41;5089575;28;20052;-82
2023/01/09 09:10:28;;;;;;;5.78;1.23;;;;;;;5.67;100.00;97803.59;5092327;28;20127;-82
2023/01/09 09:12:57;;;;;;;3.87;1.07;;;;;;;5.66;100.00;97812.72;5093640;28;20040;-82
2023/01/09 09:15:25;;;;;;;3.60;0.70;;;;;;;5.55;100.00;97794.28;5094440;28;20142;-82
2023/01/09 09:17:54;;;;;;;4.20;1.30;;;;;;;5.77;100.00;97815.97;5094195;28;20083;-82
2023/01/09 09:20:21;;;;;;;1.02;0.77;;;;;;;5.59;100.00;97790.22;5094104;28;20138;-82
2023/01/09 09:22:48;;;;;;;1.13;0.80;;;;;;;5.88;100.00;97834.34;5093128;28;20138;-82
2023/01/09 09:25:16;;;;;;;2.40;1.05;;;;;;;5.87;100.00;97815.66;5094342;28;20050;-82
2023/01/09 09:27:43;;;;;;;0.70;0.70;;;;;;;5.87;100.00;97803.00;5094369;28;20044;-82
2023/01/09 09:30:11;;;;;;;4.68;1.08;;;;;;;5.96;100.00;97795.63;5094217;28;20059;-82
2023/01/09 09:32:39;;;;;;;3.97;1.13;;;;;;;6.00;98.91;97789.72;5093463;28;20044;-82
2023/01/09 09:35:08;;;;;;;5.38;1.05;;;;;;;6.17;99.87;97795.75;5093471;28;20380;-82
2023/01/09 09:37:35;;;;;;;2.22;0.90;;;;;;;6.19;98.34;97785.56;5089184;28;20055;-82
2023/01/09 09:40:02;;;;;;;4.82;0.93;;;;;;;6.36;100.00;97791.56;5093943;28;20047;-82
2023/01/09 09:45:38;;;;;;;3.40;1.30;;;;;;;6.41;97.57;97796.38;5093875;28;20101;-82
2023/01/09 09:48:18;;;;;;;1.88;0.82;;;;;;;6.53;96.70;97800.28;5093626;28;20040;-82
2023/01/09 09:51:03;;;;;;;2.67;1.00;;;;;;;6.61;95.66;97812.81;5088007;28;20085;-83
2023/01/09 09:53:34;;;;;;;7.38;1.27;;;;;;;6.62;97.64;97803.66;5086864;28;20040;-83
2023/01/09 09:56:01;;;;;;;2.88;0.73;;;;;;;6.52;95.92;97804.00;5091820;28;20067;-82
2023/01/09 09:58:36;;;;;;;5.25;0.75;;;;;;;6.64;97.97;97804.31;5092071;28;20933;-82
2023/01/09 10:01:04;;;;;;;3.72;0.70;;;;;;;6.61;94.06;97814.66;5093812;28;20060;-82
2023/01/09 10:03:37;;;;;;;3.35;0.80;;;;;;;6.49;96.50;97782.78;5092138;28;20051;-82
2023/01/09 10:06:10;;;;;;;2.30;1.15;;;;;;;6.46;93.66;97782.31;5090241;28;20396;-82
2023/01/09 10:08:45;;;;;;;5.63;1.10;;;;;;;6.56;95.88;97799.03;5094215;28;20052;-82
2023/01/09 10:11:17;;;;;;;3.70;0.93;;;;;;;6.61;93.58;97802.00;5094869;28;20051;-82
2023/01/09 10:16:41;;;;;;;2.47;0.88;;;;;;;6.63;93.09;97799.94;5086010;28;20118;-84
2023/01/09 10:19:19;;;;;;;3.92;0.70;;;;;;;6.59;92.99;97795.94;5087376;28;20044;-84
2023/01/09 10:21:56;;;;;;;4.35;0.75;;;;;;;6.57;92.34;97795.31;5090918;28;20054;-84
2023/01/09 10:24:46;;;;;;;1.42;0.73;;;;;;;6.64;92.07;97792.66;5083244;28;20117;-85
2023/01/09 10:27:23;;;;;;;2.42;0.80;;;;;;;6.73;92.72;97797.75;5084505;28;20058;-84
2023/01/09 10:30:03;;;;;;;3.63;0.95;;;;;;;6.70;92.85;97778.41;5089895;28;20044;-84
2023/01/09 10:32:56;;;;;;;1.42;0.80;;;;;;;6.69;92.13;97771.31;5094867;28;20468;-84
2023/01/09 10:35:38;;;;;;;2.63;1.08;;;;;;;6.69;93.55;97776.72;5088629;28;20062;-84
2023/01/09 10:38:08;;;;;;;4.90;0.95;;;;;;;6.85;92.39;97783.69;5092399;28;20044;-85
2023/01/09 10:40:41;;;;;;;2.50;0.68;;;;;;;6.78;93.65;97767.44;5093574;28;20059;-83
2023/01/09 10:43:17;;;;;;;0.93;0.57;;;;;;;6.79;93.36;97774.53;5084737;28;20040;-83
2023/01/09 10:45:51;;;;;;;1.63;1.00;;;;;;;6.69;95.39;97761.34;5091234;28;20113;-84
2023/01/09 10:48:24;;;;;;;4.03;1.60;;;;;;;6.86;93.68;97777.28;5090980;28;20056;-83
2023/01/09 10:50:52;;;;;;;2.80;1.30;;;;;;;6.79;92.64;97768.28;5089560;28;20072;-84
2023/01/09 10:53:22;;;;;;;2.70;0.73;;;;;;;6.71;92.71;97751.19;5089435;28;20044;-84
2023/01/09 10:55:54;;;;;;;3.63;1.02;;;;;;;6.79;95.08;97757.47;5088997;28;20055;-84
2023/01/09 10:58:22;;;;;;;5.03;1.23;;;;;;;6.96;94.90;97756.16;5096160;28;20050;-84
2023/01/09 11:00:50;;;;;;;5.20;1.10;;;;;;;7.04;92.42;97763.28;5091175;28;20093;-84
2023/01/09 11:03:19;;;;;;;5.78;0.77;;;;;;;6.96;91.90;97747.25;5085059;28;20139;-84
2023/01/09 11:05:51;;;;;;;2.17;0.90;;;;;;;7.02;91.52;97741.88;5090436;28;20144;-84
2023/01/09 11:08:24;;;;;;;4.35;1.20;;;;;;;7.01;89.48;97736.66;5084552;28;20119;-84
2023/01/09 11:10:52;;;;;;;2.05;0.90;;;;;;;7.19;90.63;97760.47;5083772;28;20045;-83
2023/01/09 11:13:21;;;;;;;2.65;0.95;;;;;;;7.10;90.11;97743.56;5094011;28;20044;-84
2023/01/09 11:16:03;;;;;;;2.92;0.80;;;;;;;7.15;88.94;97751.94;5099429;28;20043;-84
2023/01/09 11:18:30;;;;;;;1.33;0.60;;;;;;;7.03;89.62;97742.69;5091649;28;20052;-84
2023/01/09 11:21:12;;;;;;;6.03;1.80;;;;;;;7.19;88.89;97771.28;5088963;28;20613;-84
2023/01/09 11:23:41;;;;;;;5.93;1.55;;;;;;;7.00;89.00;97749.34;5089049;28;20407;-83
2023/01/09 11:26:22;;;;;;;5.35;0.75;;;;;;;7.08;88.94;97768.09;5093372;28;20468;-84
2023/01/09 11:29:05;;;;;;;4.22;0.60;;;;;;;7.06;89.01;97756.66;5090604;28;20054;-84
2023/01/09 11:31:32;;;;;;;4.15;0.95;;;;;;;7.08;91.49;97754.59;5085151;28;20048;-84
2023/01/09 11:33:59;;;;;;;1.75;0.65;;;;;;;7.18;89.45;97761.50;5080136;28;20055;-84
2023/01/09 11:36:29;;;;;;;2.10;0.50;;;;;;;7.13;89.72;97729.66;5094501;28;20052;-81
2023/01/09 11:38:57;;;;;;;;;;;;;;;7.37;89.34;97751.88;5090413;28;20048;-84
2023/01/09 11:41:26;;;;;;;5.25;0.98;;;;;;;7.39;89.84;97747.09;5079819;28;19927;-84
2023/01/09 11:43:58;;;;;;;6.00;1.43;;;;;;;7.32;88.92;97743.53;5088560;28;20056;-84
2023/01/09 11:46:34;;;;;;;2.83;0.93;;;;;;;7.40;87.74;97756.88;5076220;28;20455;-84
2023/01/09 11:49:03;;;;;;;5.82;1.17;;;;;;;7.46;87.45;97757.94;5088236;28;20040;-84
2023/01/09 11:51:31;;;;;;;3.17;0.98;;;;;;;7.51;85.46;97748.22;5084630;28;20064;-83
2023/01/09 11:54:14;;;;;;;2.22;0.95;;;;;;;7.28;85.69;97710.63;5084494;28;20089;-84
2023/01/09 11:56:41;;;;;;;5.45;0.80;;;;;;;7.55;86.92;97745.94;5082220;28;20048;-82
2023/01/09 11:59:12;;;;;;;3.58;1.08;;;;;;;7.39;85.06;97728.16;5089530;27;20044;-83